Time;durP1;ratioP1;P1;durP2;ratioP2;P2;SDS_P1;SDS_P2;PMS_P1;PMS_P2;Temp;Humidity;BMP_temperature;BMP_pressure;BME280_temperature;BME280_humidity;BME280_pressure;Samples;Min_cycle;Max_cycle;Signal;HPM_P1;HPM_P2
2021/05/16 00:01:04;;;;;;;16.60;4.37;;;11.10;14.40;;;;;;5015790;28;20270;-78
2021/05/16 00:03:30;;;;;;;22.17;5.07;;;11.10;16.10;;;;;;5015714;28;20592;-78
2021/05/16 00:05:56;;;;;;;22.03;5.83;;;11.00;17.00;;;;;;5015795;28;20179;-78
2021/05/16 00:08:22;;;;;;;18.33;4.90;;;11.00;17.20;;;;;;5015409;28;20206;-78
2021/05/16 00:10:47;;;;;;;21.43;5.10;;;11.00;18.30;;;;;;5014659;28;20257;-78
2021/05/16 00:13:13;;;;;;;20.17;4.50;;;11.00;16.50;;;;;;5015688;28;20182;-79
2021/05/16 00:15:39;;;;;;;14.57;4.03;;;11.10;14.60;;;;;;5015585;28;20167;-78
2021/05/16 00:18:05;;;;;;;18.13;4.50;;;11.00;14.10;;;;;;5015571;28;20175;-78
2021/05/16 00:20:33;;;;;;;19.30;4.40;;;10.90;16.00;;;;;;5015471;28;20639;-78
2021/05/16 00:23:00;;;;;;;21.90;5.43;;;10.90;18.90;;;;;;5015207;28;20170;-77
2021/05/16 00:25:26;;;;;;;22.13;4.97;;;10.90;21.70;;;;;;5015029;28;20631;-79
2021/05/16 00:27:52;;;;;;;14.77;4.60;;;10.90;22.40;;;;;;5015548;28;20349;-78
2021/05/16 00:30:20;;;;;;;19.63;4.50;;;10.90;24.30;;;;;;5015624;28;20198;-79
2021/05/16 00:32:46;;;;;;;20.27;4.63;;;10.90;22.30;;;;;;5015583;28;20174;-78
2021/05/16 00:35:15;;;;;;;18.60;4.13;;;11.00;22.20;;;;;;5016202;28;20162;-77
2021/05/16 00:37:40;;;;;;;17.67;4.20;;;11.00;20.40;;;;;;5015747;28;20236;-78
2021/05/16 00:40:07;;;;;;;14.20;3.90;;;11.10;16.10;;;;;;5015225;28;20630;-79
2021/05/16 00:42:33;;;;;;;17.03;4.03;;;11.10;14.30;;;;;;5015150;28;20178;-78
2021/05/16 00:45:07;;;;;;;21.37;4.70;;;11.10;16.80;;;;;;5014908;28;20167;-78
2021/05/16 00:47:33;;;;;;;15.63;4.50;;;11.10;14.60;;;;;;5014858;28;20190;-78
2021/05/16 00:49:58;;;;;;;16.40;4.10;;;11.20;11.50;;;;;;5014861;28;20177;-79
2021/05/16 00:52:26;;;;;;;22.27;4.00;;;11.10;11.70;;;;;;5014831;28;20696;-78
2021/05/16 00:54:54;;;;;;;18.03;4.40;;;11.10;15.20;;;;;;5014501;28;20642;-77
2021/05/16 00:57:20;;;;;;;18.83;3.60;;;11.10;17.10;;;;;;5014993;28;20174;-78
2021/05/16 00:59:45;;;;;;;16.40;4.23;;;11.00;18.40;;;;;;5014861;28;20162;-78
2021/05/16 01:02:11;;;;;;;15.27;4.30;;;11.00;18.70;;;;;;5014483;28;20689;-78
2021/05/16 01:04:38;;;;;;;20.00;5.10;;;11.00;20.00;;;;;;5014491;28;20201;-78
2021/05/16 01:07:04;;;;;;;20.27;5.17;;;11.00;22.20;;;;;;5014312;28;20663;-78
2021/05/16 01:09:30;;;;;;;17.63;4.90;;;10.90;19.20;;;;;;5014737;28;20173;-78
2021/05/16 01:11:58;;;;;;;16.73;4.93;;;11.00;22.00;;;;;;5014498;28;20166;-78
2021/05/16 01:14:31;;;;;;;19.90;5.23;;;11.00;22.10;;;;;;5014612;28;20201;-77
2021/05/16 01:16:57;;;;;;;18.43;5.20;;;11.00;25.00;;;;;;5012985;28;20182;-79
2021/05/16 01:19:23;;;;;;;18.10;4.47;;;10.90;31.00;;;;;;5014622;28;20240;-78
2021/05/16 01:21:50;;;;;;;18.77;5.07;;;11.00;29.30;;;;;;5014042;28;20642;-78
2021/05/16 01:24:18;;;;;;;15.47;4.70;;;11.00;31.20;;;;;;5014318;28;20159;-78
2021/05/16 01:26:49;;;;;;;25.70;5.67;;;10.90;32.40;;;;;;5013900;28;20256;-79
2021/05/16 01:29:16;;;;;;;19.07;5.00;;;10.90;36.30;;;;;;5014272;28;20233;-78
2021/05/16 01:31:42;;;;;;;17.63;5.20;;;10.80;41.50;;;;;;5014084;28;20253;-79
2021/05/16 01:34:08;;;;;;;16.53;5.20;;;10.90;43.70;;;;;;5012946;28;20210;-78
2021/05/16 01:36:34;;;;;;;14.67;4.47;;;10.80;46.40;;;;;;5013865;28;20174;-77
2021/05/16 01:39:01;;;;;;;16.20;5.40;;;10.80;48.90;;;;;;5014247;28;20181;-79
2021/05/16 01:41:27;;;;;;;15.60;4.43;;;10.70;52.20;;;;;;5014070;28;20177;-78
2021/05/16 01:43:54;;;;;;;17.47;4.33;;;10.80;53.70;;;;;;5014158;28;20174;-78
2021/05/16 01:46:20;;;;;;;19.50;5.13;;;10.80;54.90;;;;;;5013836;28;20163;-78
2021/05/16 01:48:46;;;;;;;16.50;5.07;;;10.80;56.80;;;;;;5014193;28;20713;-78
2021/05/16 01:51:12;;;;;;;15.57;4.27;;;10.90;53.70;;;;;;5013460;28;20631;-78
2021/05/16 01:53:40;;;;;;;16.73;4.20;;;10.80;53.40;;;;;;5014049;28;20664;-78
2021/05/16 01:56:07;;;;;;;19.50;4.77;;;10.70;56.60;;;;;;5013455;28;20174;-78
2021/05/16 01:58:35;;;;;;;15.60;4.67;;;10.70;59.60;;;;;;5013920;28;20166;-78
2021/05/16 02:01:02;;;;;;;19.67;5.03;;;10.80;55.50;;;;;;5013659;28;20757;-78
2021/05/16 02:03:29;;;;;;;12.87;4.37;;;10.70;58.10;;;;;;5013684;28;20555;-78
2021/05/16 02:05:55;;;;;;;16.83;4.33;;;10.80;57.70;;;;;;5013236;28;20178;-78
2021/05/16 02:08:22;;;;;;;13.50;5.00;;;10.80;54.60;;;;;;5013708;28;20214;-78
2021/05/16 02:10:48;;;;;;;15.83;4.67;;;10.80;55.90;;;;;;5013492;28;20170;-77
2021/05/16 02:13:13;;;;;;;13.77;4.37;;;11.00;52.60;;;;;;5013562;28;20185;-78
2021/05/16 02:15:39;;;;;;;14.07;4.33;;;10.90;50.80;;;;;;5013479;28;20174;-78
2021/05/16 02:18:06;;;;;;;22.53;5.17;;;11.00;48.30;;;;;;5013279;28;20175;-77
2021/05/16 02:20:31;;;;;;;15.00;4.80;;;11.00;48.20;;;;;;5012987;28;20197;-78
2021/05/16 02:22:57;;;;;;;16.93;4.90;;;11.10;46.50;;;;;;5013331;28;20178;-77
2021/05/16 02:25:23;;;;;;;19.77;4.57;;;11.00;46.70;;;;;;5011777;28;20186;-78
2021/05/16 02:27:48;;;;;;;14.27;4.70;;;10.90;55.00;;;;;;5013252;28;20698;-78
2021/05/16 02:30:16;;;;;;;14.20;4.37;;;10.80;57.70;;;;;;5013254;28;20193;-77
2021/05/16 02:32:42;;;;;;;13.57;4.87;;;10.60;65.00;;;;;;5013344;28;20178;-77
2021/05/16 02:35:11;;;;;;;15.40;5.30;;;10.60;72.20;;;;;;5012690;28;20177;-79
2021/05/16 02:37:37;;;;;;;14.20;4.47;;;10.60;70.10;;;;;;5013280;28;20221;-79
2021/05/16 02:40:04;;;;;;;12.37;4.23;;;10.60;73.20;;;;;;5013284;28;20194;-77
2021/05/16 02:42:30;;;;;;;13.03;4.20;;;10.60;74.40;;;;;;5012938;28;20228;-78
2021/05/16 02:44:56;;;;;;;16.57;4.80;;;10.60;75.60;;;;;;5013231;28;20175;-79
2021/05/16 02:47:21;;;;;;;11.93;4.20;;;10.60;73.50;;;;;;5013036;28;20681;-79
2021/05/16 02:49:47;;;;;;;11.33;4.37;;;10.50;75.40;;;;;;5012966;28;20197;-78
2021/05/16 02:52:13;;;;;;;12.27;4.63;;;10.40;78.30;;;;;;5013117;28;20716;-79
2021/05/16 02:54:38;;;;;;;13.37;3.90;;;10.40;82.30;;;;;;5013023;28;20174;-78
2021/05/16 02:57:04;;;;;;;13.37;3.97;;;10.40;82.40;;;;;;5013130;28;20681;-78
2021/05/16 02:59:30;;;;;;;11.73;4.07;;;10.40;81.40;;;;;;5013290;28;20186;-78
2021/05/16 03:01:56;;;;;;;14.17;4.20;;;10.40;82.60;;;;;;5013071;28;20197;-77
2021/05/16 03:04:22;;;;;;;14.70;4.57;;;10.40;83.40;;;;;;5012745;28;20198;-77
2021/05/16 03:06:47;;;;;;;11.70;4.13;;;10.30;87.70;;;;;;5012868;28;20177;-78
2021/05/16 03:09:13;;;;;;;12.00;3.70;;;10.30;88.10;;;;;;5013128;28;20194;-79
2021/05/16 03:11:39;;;;;;;14.13;4.37;;;10.30;88.00;;;;;;5012928;28;20216;-78
2021/05/16 03:14:04;;;;;;;10.93;3.90;;;10.30;88.40;;;;;;5012917;28;20178;-79
2021/05/16 03:16:30;;;;;;;16.07;3.93;;;10.20;90.00;;;;;;5012804;28;20167;-78
2021/05/16 03:18:56;;;;;;;10.23;3.77;;;10.20;90.40;;;;;;5012606;28;20175;-79
2021/05/16 03:21:22;;;;;;;12.93;3.70;;;10.20;91.10;;;;;;5012910;28;20237;-80
2021/05/16 03:23:47;;;;;;;11.40;3.73;;;10.10;91.70;;;;;;5012577;28;20265;-78
2021/05/16 03:26:13;;;;;;;12.90;4.00;;;10.10;92.30;;;;;;5012260;28;20218;-78
2021/05/16 03:28:39;;;;;;;12.83;4.03;;;10.10;93.00;;;;;;5012568;28;20218;-78
2021/05/16 03:31:04;;;;;;;14.23;3.90;;;10.10;91.70;;;;;;5012610;28;20167;-77
2021/05/16 03:33:30;;;;;;;10.83;4.10;;;10.10;93.10;;;;;;5012519;28;20182;-78
2021/05/16 03:35:55;;;;;;;9.83;3.73;;;10.20;93.10;;;;;;5012794;28;20165;-77
2021/05/16 03:38:21;;;;;;;12.10;3.97;;;10.20;93.20;;;;;;5012541;28;20642;-79
2021/05/16 03:40:47;;;;;;;11.67;3.93;;;10.20;92.70;;;;;;5012516;28;20205;-78
2021/05/16 03:43:13;;;;;;;9.40;3.80;;;10.20;92.60;;;;;;5012291;28;20264;-78
2021/05/16 03:45:39;;;;;;;12.83;3.80;;;10.20;92.80;;;;;;5012614;28;20651;-79
2021/05/16 03:48:05;;;;;;;15.83;4.60;;;10.10;93.60;;;;;;5015689;28;20206;-80
2021/05/16 03:50:31;;;;;;;9.87;4.20;;;10.20;94.20;;;;;;5016019;28;20216;-79
2021/05/16 03:52:57;;;;;;;11.83;3.67;;;10.10;94.10;;;;;;5016358;28;20202;-78
2021/05/16 03:55:23;;;;;;;13.30;4.03;;;10.20;94.50;;;;;;5015885;28;20170;-77
2021/05/16 03:57:51;;;;;;;16.47;4.60;;;10.20;95.00;;;;;;5016138;28;20747;-78
2021/05/16 04:00:18;;;;;;;12.53;4.17;;;10.20;95.00;;;;;;5015708;28;20173;-78
2021/05/16 04:02:45;;;;;;;11.63;3.90;;;10.20;95.20;;;;;;5015391;28;20541;-77
2021/05/16 04:05:12;;;;;;;18.67;4.47;;;10.20;95.70;;;;;;5015844;28;20245;-78
2021/05/16 04:07:39;;;;;;;13.33;4.70;;;10.20;95.90;;;;;;5015726;28;20194;-78
2021/05/16 04:10:06;;;;;;;12.67;5.10;;;10.30;96.30;;;;;;5015710;28;20170;-79
2021/05/16 04:12:32;;;;;;;12.83;4.37;;;10.40;96.10;;;;;;5015766;28;20666;-77
2021/05/16 04:14:58;;;;;;;10.40;4.07;;;10.40;95.70;;;;;;5015473;28;20638;-78
2021/05/16 04:17:24;;;;;;;13.00;4.07;;;10.40;95.50;;;;;;5016217;28;20182;-78
2021/05/16 04:19:49;;;;;;;12.13;4.63;;;10.60;94.60;;;;;;5016283;28;20178;-79
2021/05/16 04:22:15;;;;;;;10.70;4.20;;;10.60;93.10;;;;;;5015693;28;20174;-79
2021/05/16 04:24:41;;;;;;;8.90;4.10;;;10.60;93.10;;;;;;5015169;28;20170;-79
2021/05/16 04:27:06;;;;;;;15.17;4.93;;;10.50;93.40;;;;;;5015074;28;20205;-77
2021/05/16 04:29:32;;;;;;;11.90;4.83;;;10.50;94.60;;;;;;5013401;28;20219;-78
2021/05/16 04:31:58;;;;;;;12.87;4.47;;;10.50;95.30;;;;;;5015046;28;20171;-78
2021/05/16 04:34:23;;;;;;;11.30;4.70;;;10.40;96.40;;;;;;5013893;28;20281;-79
2021/05/16 04:36:49;;;;;;;11.00;4.50;;;10.40;97.20;;;;;;5014058;28;20178;-79
2021/05/16 04:39:15;;;;;;;11.07;4.53;;;10.50;97.60;;;;;;5015103;28;20630;-78
2021/05/16 04:41:41;;;;;;;12.17;3.83;;;10.50;97.90;;;;;;5013997;28;20178;-78
2021/05/16 04:44:07;;;;;;;9.73;4.30;;;10.60;98.10;;;;;;5014821;28;20221;-78
2021/05/16 04:46:33;;;;;;;11.40;4.00;;;10.70;98.30;;;;;;5014949;28;20162;-78
2021/05/16 04:48:59;;;;;;;11.97;4.63;;;10.70;98.20;;;;;;5015135;28;20299;-78
2021/05/16 04:51:24;;;;;;;11.33;3.70;;;10.70;98.00;;;;;;5015105;28;20198;-77
2021/05/16 04:53:50;;;;;;;9.97;4.07;;;10.80;97.60;;;;;;5014861;28;20174;-78
2021/05/16 04:56:16;;;;;;;10.17;3.77;;;10.80;97.60;;;;;;5013645;28;20183;-78
2021/05/16 04:58:42;;;;;;;11.20;3.77;;;10.70;97.90;;;;;;5013027;28;20260;-80
2021/05/16 05:01:08;;;;;;;11.73;4.13;;;10.70;98.20;;;;;;5014754;28;20202;-77
2021/05/16 05:03:34;;;;;;;10.90;4.17;;;10.70;98.60;;;;;;5014719;28;20204;-78
2021/05/16 05:06:00;;;;;;;8.60;3.73;;;10.70;99.10;;;;;;5014382;28;20167;-80
2021/05/16 05:08:26;;;;;;;8.67;3.60;;;10.70;98.60;;;;;;5014765;28;20268;-79
2021/05/16 05:10:53;;;;;;;12.63;4.67;;;10.80;98.50;;;;;;5014410;28;20194;-78
2021/05/16 05:13:19;;;;;;;12.23;4.10;;;10.90;98.80;;;;;;5014394;28;20294;-79
2021/05/16 05:15:45;;;;;;;12.80;4.13;;;10.90;98.80;;;;;;5014419;28;20644;-78
2021/05/16 05:18:10;;;;;;;11.13;3.73;;;11.00;98.70;;;;;;5014554;28;20614;-79
2021/05/16 05:20:36;;;;;;;13.80;4.23;;;10.90;98.70;;;;;;5014382;28;20175;-79
2021/05/16 05:23:02;;;;;;;9.93;4.17;;;11.10;98.60;;;;;;5014518;28;20224;-78
2021/05/16 05:25:28;;;;;;;12.10;4.33;;;11.10;98.90;;;;;;5013792;28;20182;-78
2021/05/16 05:27:55;;;;;;;12.47;4.73;;;11.20;98.20;;;;;;5013702;28;20224;-79
2021/05/16 05:30:22;;;;;;;11.20;4.30;;;11.20;98.20;;;;;;5014177;28;20255;-78
2021/05/16 05:32:48;;;;;;;14.83;4.90;;;11.20;98.40;;;;;;5014143;28;20177;-79
2021/05/16 05:35:13;;;;;;;12.23;4.30;;;11.30;97.60;;;;;;5014230;28;20182;-78
2021/05/16 05:37:39;;;;;;;12.63;4.20;;;11.20;98.00;;;;;;5014187;28;20209;-78
2021/05/16 05:40:05;;;;;;;9.53;3.90;;;11.30;98.40;;;;;;5012858;28;20183;-78
2021/05/16 05:42:31;;;;;;;11.50;3.87;;;11.30;97.80;;;;;;5013679;28;20170;-80
2021/05/16 05:44:56;;;;;;;11.13;4.40;;;11.30;98.00;;;;;;5014040;28;20170;-79
2021/05/16 05:47:22;;;;;;;15.70;4.00;;;11.30;97.90;;;;;;5013954;28;20206;-78
2021/05/16 05:49:48;;;;;;;8.90;3.63;;;11.50;97.20;;;;;;5013987;28;20213;-79
2021/05/16 05:52:14;;;;;;;12.83;3.90;;;11.60;96.50;;;;;;5013847;28;20261;-78
2021/05/16 05:54:40;;;;;;;12.20;3.83;;;11.50;95.70;;;;;;5013948;28;20174;-78
2021/05/16 05:57:05;;;;;;;12.37;3.93;;;11.50;95.10;;;;;;5013758;28;20174;-78
2021/05/16 05:59:32;;;;;;;13.63;4.87;;;11.60;94.90;;;;;;5014033;28;20261;-77
2021/05/16 06:01:59;;;;;;;9.47;3.60;;;11.50;95.40;;;;;;5013486;28;20170;-80
2021/05/16 06:04:25;;;;;;;11.87;3.97;;;11.60;94.70;;;;;;5013465;28;20190;-78
2021/05/16 06:06:51;;;;;;;16.03;4.03;;;11.60;93.50;;;;;;5013299;28;20193;-78
2021/05/16 06:09:16;;;;;;;9.33;3.70;;;11.70;93.80;;;;;;5013043;28;20532;-78
2021/05/16 06:11:42;;;;;;;13.07;4.03;;;11.80;93.60;;;;;;5013092;28;20178;-78
2021/05/16 06:14:08;;;;;;;13.93;3.83;;;11.70;93.60;;;;;;5013400;28;20615;-78
2021/05/16 06:16:33;;;;;;;10.80;4.17;;;11.80;92.40;;;;;;5013206;28;20257;-79
2021/05/16 06:19:00;;;;;;;10.23;3.90;;;11.90;90.30;;;;;;5013508;28;20174;-77
2021/05/16 06:21:27;;;;;;;10.70;3.77;;;12.00;87.40;;;;;;5013110;28;20174;-79
2021/05/16 06:24:05;;;;;;;10.93;3.43;;;12.10;84.90;;;;;;5013069;28;20197;-79
2021/05/16 06:26:33;;;;;;;12.50;3.93;;;12.10;83.90;;;;;;5012405;28;20209;-79
2021/05/16 06:28:59;;;;;;;13.60;4.27;;;12.20;80.30;;;;;;5013316;28;20225;-79
2021/05/16 06:31:25;;;;;;;11.63;4.20;;;12.20;79.20;;;;;;5013122;28;20614;-78
2021/05/16 06:33:51;;;;;;;16.13;4.23;;;12.20;76.10;;;;;;5012965;28;20206;-78
2021/05/16 06:36:17;;;;;;;18.00;4.73;;;12.10;77.40;;;;;;5013122;28;20170;-78
2021/05/16 06:38:43;;;;;;;10.73;3.77;;;12.20;73.50;;;;;;5012914;28;20184;-78
2021/05/16 06:41:08;;;;;;;13.23;3.97;;;12.20;73.70;;;;;;5012843;28;20174;-79
2021/05/16 06:43:34;;;;;;;11.97;3.77;;;12.30;71.30;;;;;;5012891;28;20624;-79
2021/05/16 06:45:59;;;;;;;11.67;4.07;;;12.40;69.70;;;;;;5012555;28;20170;-79
2021/05/16 06:48:26;;;;;;;9.27;3.47;;;12.50;60.70;;;;;;5012598;28;20221;-77
2021/05/16 06:50:52;;;;;;;18.17;5.10;;;12.40;61.40;;;;;;5012764;28;20173;-78
2021/05/16 06:53:18;;;;;;;11.80;4.30;;;12.50;60.80;;;;;;5012833;28;20175;-80
2021/05/16 06:55:44;;;;;;;16.13;4.10;;;12.50;59.30;;;;;;5012536;28;20177;-78
2021/05/16 06:58:09;;;;;;;12.93;4.00;;;12.60;54.90;;;;;;5012923;28;20541;-79
2021/05/16 07:00:35;;;;;;;14.23;4.27;;;12.70;53.40;;;;;;5013012;28;20592;-79
2021/05/16 07:03:00;;;;;;;16.77;5.27;;;12.60;51.20;;;;;;5012418;28;20178;-79
2021/05/16 07:05:26;;;;;;;13.93;4.13;;;12.80;48.10;;;;;;5012784;28;20181;-78
2021/05/16 07:07:52;;;;;;;10.40;4.47;;;12.80;44.90;;;;;;5012753;28;20206;-79
2021/05/16 07:10:17;;;;;;;15.67;4.97;;;12.90;41.70;;;;;;5012689;28;20217;-78
2021/05/16 07:12:43;;;;;;;13.57;4.17;;;12.80;40.20;;;;;;5012653;28;20269;-80
2021/05/16 07:15:13;;;;;;;15.20;4.50;;;12.90;30.00;;;;;;5012801;28;20228;-80
2021/05/16 07:17:39;;;;;;;13.73;4.17;;;12.80;31.30;;;;;;5012675;28;20170;-79
2021/05/16 07:20:06;;;;;;;15.70;5.13;;;12.90;27.60;;;;;;5013575;28;20193;-79
2021/05/16 07:22:32;;;;;;;16.03;5.23;;;13.00;30.00;;;;;;5016254;28;20179;-80
2021/05/16 07:24:57;;;;;;;11.03;4.43;;;13.10;19.90;;;;;;5014993;28;20220;-77
2021/05/16 07:27:23;;;;;;;15.17;5.00;;;13.20;12.80;;;;;;5016663;28;20214;-78
2021/05/16 07:29:49;;;;;;;12.77;4.57;;;13.10;12.60;;;;;;5016352;28;20219;-80
2021/05/16 07:32:15;;;;;;;12.67;4.37;;;13.10;12.90;;;;;;5014891;28;20189;-80
2021/05/16 07:34:41;;;;;;;12.40;3.93;;;13.00;11.70;;;;;;5014897;28;20174;-78
2021/05/16 07:37:06;;;;;;;11.23;4.37;;;13.10;13.50;;;;;;5015022;28;20174;-78
2021/05/16 07:39:32;;;;;;;11.83;4.33;;;13.30;10.60;;;;;;5016110;28;20174;-79
2021/05/16 07:41:58;;;;;;;17.37;5.43;;;13.30;5.20;;;;;;5014943;28;20174;-78
2021/05/16 07:44:23;;;;;;;13.13;4.30;;;13.50;1.00;;;;;;5016050;28;20254;-78
2021/05/16 07:46:49;;;;;;;13.13;3.90;;;13.50;1.00;;;;;;5015992;28;20174;-79
2021/05/16 07:49:14;;;;;;;14.33;3.87;;;13.50;1.00;;;;;;5014887;28;20528;-78
2021/05/16 07:51:41;;;;;;;10.60;4.03;;;13.50;1.00;;;;;;5016276;28;20520;-79
2021/05/16 07:54:08;;;;;;;14.53;4.00;;;13.60;1.00;;;;;;5014190;28;20263;-78
2021/05/16 07:56:33;;;;;;;15.57;4.50;;;13.60;1.00;;;;;;5015791;28;20176;-79
2021/05/16 07:58:59;;;;;;;13.93;4.37;;;13.50;1.00;;;;;;5015933;28;20167;-78
2021/05/16 08:01:25;;;;;;;13.37;3.97;;;13.60;1.00;;;;;;5015898;28;20179;-79
2021/05/16 08:03:50;;;;;;;14.13;4.40;;;13.80;1.00;;;;;;5015583;28;20647;-79
2021/05/16 08:06:16;;;;;;;14.03;4.17;;;13.90;1.00;;;;;;5015653;28;20631;-79
2021/05/16 08:08:42;;;;;;;16.33;4.40;;;14.10;1.00;;;;;;5015366;28;20210;-80
2021/05/16 08:11:09;;;;;;;12.97;3.80;;;14.30;1.00;;;;;;5015679;28;20225;-79
2021/05/16 08:13:34;;;;;;;14.87;4.33;;;14.30;1.00;;;;;;5015829;28;20174;-79
2021/05/16 08:16:00;;;;;;;10.10;3.40;;;14.30;1.00;;;;;;5015377;28;20688;-79
2021/05/16 08:18:26;;;;;;;11.17;4.03;;;14.40;1.00;;;;;;5015386;28;20568;-79
2021/05/16 08:20:52;;;;;;;11.87;3.40;;;14.20;1.00;;;;;;5015057;28;20174;-80
2021/05/16 08:23:17;;;;;;;11.40;4.10;;;14.30;1.00;;;;;;5015214;28;20312;-80
2021/05/16 08:25:43;;;;;;;13.20;4.10;;;14.30;1.00;;;;;;5014776;28;20187;-80
2021/05/16 08:28:09;;;;;;;12.47;3.67;;;14.40;1.00;;;;;;5014837;28;20225;-80
2021/05/16 08:30:36;;;;;;;13.07;3.93;;;14.40;1.00;;;;;;5015351;28;20170;-80
2021/05/16 08:33:02;;;;;;;12.23;3.97;;;14.50;1.00;;;;;;5015009;28;20270;-79
2021/05/16 08:35:27;;;;;;;8.97;3.83;;;14.50;1.00;;;;;;5015640;28;20561;-80
2021/05/16 08:37:53;;;;;;;14.17;4.10;;;14.40;1.00;;;;;;5013816;28;20202;-79
2021/05/16 08:40:19;;;;;;;12.40;3.43;;;14.40;1.00;;;;;;5014420;28;20545;-79
2021/05/16 08:42:45;;;;;;;17.10;4.60;;;14.60;1.00;;;;;;5015425;28;20175;-78
2021/05/16 08:45:13;;;;;;;9.10;3.60;;;14.60;1.00;;;;;;5013837;28;20174;-79
2021/05/16 08:47:41;;;;;;;15.47;4.23;;;14.60;1.00;;;;;;5016004;28;20216;-79
2021/05/16 08:50:10;;;;;;;13.03;4.07;;;14.50;1.00;;;;;;5015026;28;20550;-79
2021/05/16 08:52:36;;;;;;;11.60;3.97;;;14.30;1.00;;;;;;5014455;28;20297;-79
2021/05/16 08:55:03;;;;;;;12.60;3.83;;;14.30;1.00;;;;;;5014413;28;20174;-79
2021/05/16 08:57:29;;;;;;;11.50;4.17;;;14.20;1.00;;;;;;5014649;28;20745;-79
2021/05/16 09:00:11;;;;;;;12.20;4.07;;;14.20;1.00;;;;;;5014827;28;20253;-79
2021/05/16 09:03:02;;;;;;;11.53;4.43;;;14.20;1.00;;;;;;5012973;28;20196;-80
2021/05/16 09:05:36;;;;;;;12.17;3.87;;;14.30;1.00;;;;;;5014019;28;20216;-79
2021/05/16 09:08:22;;;;;;;11.13;4.13;;;14.40;1.00;;;;;;5014238;28;20199;-80
2021/05/16 09:10:54;;;;;;;8.53;3.20;;;14.60;1.00;;;;;;5013848;28;20172;-78
2021/05/16 09:13:22;;;;;;;8.83;3.30;;;14.60;1.00;;;;;;5012926;28;20265;-80
2021/05/16 09:16:17;;;;;;;10.37;2.80;;;14.80;1.00;;;;;;5012259;28;20541;-79
2021/05/16 09:18:47;;;;;;;11.20;2.83;;;14.90;1.00;;;;;;5014278;28;20177;-79
2021/05/16 09:21:22;;;;;;;8.10;2.73;;;15.00;1.00;;;;;;5014028;28;20668;-78
2021/05/16 09:24:00;;;;;;;10.60;2.50;;;15.10;99.90;;;;;;5014442;28;20578;-80
2021/05/16 09:26:51;;;;;;;8.50;2.50;;;14.90;99.90;;;;;;5014214;28;20182;-81
2021/05/16 09:29:42;;;;;;;8.00;2.30;;;14.70;99.90;;;;;;5014151;28;20736;-80
2021/05/16 09:32:08;;;;;;;9.50;2.33;;;14.70;99.90;;;;;;5013557;28;20171;-80
2021/05/16 09:34:35;;;;;;;7.73;2.33;;;14.70;99.90;;;;;;5013963;28;20217;-79
2021/05/16 09:37:02;;;;;;;5.63;2.03;;;14.70;59.90;;;;;;5014186;28;20710;-80
2021/05/16 09:39:34;;;;;;;8.70;2.83;;;14.80;99.90;;;;;;5013889;28;20245;-81
2021/05/16 09:42:13;;;;;;;6.27;2.37;;;14.90;99.90;;;;;;5013911;28;20178;-80
2021/05/16 09:44:53;;;;;;;5.83;1.77;;;14.90;1.00;;;;;;5013504;28;20322;-80
2021/05/16 09:47:27;;;;;;;6.40;1.80;;;15.00;1.00;;;;;;5012326;28;20210;-81
2021/05/16 09:49:57;;;;;;;6.57;2.00;;;15.10;1.00;;;;;;5013640;28;20683;-81
2021/05/16 09:52:27;;;;;;;3.57;1.70;;;15.20;99.90;;;;;;5013739;28;20206;-80
2021/05/16 09:55:01;;;;;;;7.17;2.30;;;15.30;1.00;;;;;;5013421;28;20173;-80
2021/05/16 09:57:32;;;;;;;5.00;1.77;;;15.40;37.60;;;;;;5012072;28;20229;-80
2021/05/16 09:59:58;;;;;;;6.10;1.83;;;15.30;99.90;;;;;;5013786;28;20277;-79
2021/05/16 10:02:27;;;;;;;5.83;1.67;;;15.40;1.00;;;;;;5012992;28;20262;-80
2021/05/16 10:04:53;;;;;;;9.67;2.17;;;15.50;99.90;;;;;;5012536;28;20553;-80
2021/05/16 10:07:23;;;;;;;5.50;1.90;;;15.50;1.00;;;;;;5011905;28;20217;-80
2021/05/16 10:09:53;;;;;;;5.67;2.33;;;15.50;99.90;;;;;;5013305;28;20166;-80
2021/05/16 10:12:21;;;;;;;7.53;2.40;;;15.40;99.90;;;;;;5011739;28;20712;-79
2021/05/16 10:15:00;;;;;;;7.93;3.43;;;15.50;1.00;;;;;;5013166;28;20176;-80
2021/05/16 10:17:27;;;;;;;8.33;3.67;;;15.60;99.90;;;;;;5012682;28;20166;-80
2021/05/16 10:19:54;;;;;;;9.43;4.50;;;15.70;99.90;;;;;;5012949;28;20174;-80
2021/05/16 10:22:26;;;;;;;12.80;5.30;;;15.50;99.90;;;;;;5012635;28;20176;-80
2021/05/16 10:24:53;;;;;;;9.60;4.87;;;15.50;1.00;;;;;;5012286;28;20175;-80
2021/05/16 10:27:30;;;;;;;15.63;5.20;;;15.60;1.00;;;;;;5011402;28;20297;-79
2021/05/16 10:30:00;;;;;;;10.73;4.03;;;15.50;99.90;;;;;;5013183;28;20174;-80
2021/05/16 10:32:50;;;;;;;10.63;3.37;;;15.20;1.00;;;;;;5011727;28;20179;-78
2021/05/16 10:35:16;;;;;;;10.30;2.80;;;15.00;1.00;;;;;;5012362;28;20183;-79
2021/05/16 10:37:56;;;;;;;8.87;2.67;;;14.80;1.00;;;;;;5012741;28;20172;-80
2021/05/16 10:40:36;;;;;;;10.27;2.90;;;14.70;1.00;;;;;;5012333;28;20486;-79
2021/05/16 10:43:24;;;;;;;6.03;2.30;;;14.70;1.00;;;;;;5012267;28;20178;-79
2021/05/16 10:45:50;;;;;;;8.73;3.30;;;14.90;1.00;;;;;;5012564;28;20186;-80
2021/05/16 10:48:18;;;;;;;12.57;3.37;;;15.10;1.00;;;;;;5012307;28;20220;-80
2021/05/16 10:50:50;;;;;;;9.17;2.87;;;15.20;1.00;;;;;;5012449;28;20640;-79
2021/05/16 10:53:17;;;;;;;5.20;1.93;;;15.20;1.00;;;;;;5012832;28;20705;-80
2021/05/16 10:55:49;;;;;;;11.20;2.57;;;15.30;1.00;;;;;;5012818;28;20186;-79
2021/05/16 10:58:38;;;;;;;7.90;2.17;;;15.40;1.00;;;;;;5016567;28;20254;-80
2021/05/16 11:01:14;;;;;;;8.00;2.30;;;15.30;1.00;;;;;;5012085;28;20187;-80
2021/05/16 11:03:49;;;;;;;7.57;1.97;;;15.60;1.00;;;;;;5016692;28;20194;-79
2021/05/16 11:06:20;;;;;;;7.10;2.23;;;15.80;99.90;;;;;;4998678;28;20241;-81
2021/05/16 11:08:46;;;;;;;9.43;2.47;;;15.90;99.90;;;;;;5006791;28;20299;-80
2021/05/16 11:11:55;;;;;;;6.13;2.70;;;15.90;99.90;;;;;;5013591;28;20272;-79
2021/05/16 11:14:31;;;;;;;7.97;2.27;;;16.10;99.90;;;;;;5014611;28;20186;-79
2021/05/16 11:17:07;;;;;;;5.57;1.97;;;16.00;60.10;;;;;;5015592;28;20160;-81
2021/05/16 11:19:35;;;;;;;7.50;1.60;;;15.80;99.90;;;;;;5015877;28;20182;-79
2021/05/16 11:22:16;;;;;;;10.20;2.33;;;15.90;1.00;;;;;;5014358;28;20825;-82
2021/05/16 11:24:45;;;;;;;7.23;2.87;;;15.90;1.00;;;;;;5005324;28;20651;-79
2021/05/16 11:27:18;;;;;;;6.87;2.67;;;15.90;71.60;;;;;;4993959;28;20191;-78
2021/05/16 11:29:44;;;;;;;6.70;2.20;;;16.10;1.00;;;;;;4999561;28;20185;-79
2021/05/16 11:32:09;;;;;;;7.47;2.73;;;16.30;99.90;;;;;;5011401;28;20557;-81
2021/05/16 11:34:35;;;;;;;6.97;2.30;;;16.40;1.00;;;;;;4996537;28;20193;-79
2021/05/16 11:37:17;;;;;;;5.93;2.40;;;16.50;1.00;;;;;;4999336;28;20193;-82
2021/05/16 11:39:42;;;;;;;9.87;2.40;;;16.60;99.90;;;;;;5002632;28;20182;-79
2021/05/16 11:42:08;;;;;;;7.37;2.30;;;16.70;1.00;;;;;;4994683;28;20178;-80
2021/05/16 11:44:34;;;;;;;5.20;1.77;;;16.50;99.90;;;;;;4994115;28;20181;-82
2021/05/16 11:47:00;;;;;;;5.40;2.00;;;16.50;1.00;;;;;;5011248;28;20224;-81
2021/05/16 11:49:29;;;;;;;5.50;1.83;;;16.60;1.00;;;;;;5012248;28;20654;-80
2021/05/16 11:52:00;;;;;;;4.37;1.63;;;16.80;99.90;;;;;;5007096;28;20606;-80
2021/05/16 11:54:33;;;;;;;4.63;1.80;;;16.90;1.00;;;;;;4994232;28;20547;-82
2021/05/16 11:56:59;;;;;;;4.87;2.10;;;16.80;1.00;;;;;;5011030;28;20544;-83
2021/05/16 11:59:29;;;;;;;6.07;2.10;;;16.90;1.00;;;;;;5014996;28;20646;-82
2021/05/16 12:01:54;;;;;;;5.57;2.13;;;16.80;1.00;;;;;;5014207;28;20207;-81
2021/05/16 12:04:21;;;;;;;7.40;2.73;;;16.90;43.00;;;;;;5014506;28;20606;-81
2021/05/16 12:06:52;;;;;;;5.00;2.20;;;16.90;1.00;;;;;;5013772;28;20583;-83
2021/05/16 12:09:20;;;;;;;4.17;2.10;;;16.90;1.00;;;;;;5014817;28;20551;-79
2021/05/16 12:11:48;;;;;;;4.20;1.90;;;17.00;1.00;;;;;;5014006;28;20189;-80
2021/05/16 12:14:17;;;;;;;3.67;1.73;;;17.30;1.00;;;;;;5014980;28;20173;-81
2021/05/16 12:17:00;;;;;;;6.80;2.13;;;17.30;1.00;;;;;;5015287;28;20212;-81
2021/05/16 12:19:31;;;;;;;4.90;2.00;;;17.20;99.90;;;;;;5015045;28;20166;-81
2021/05/16 12:22:16;;;;;;;3.93;1.97;;;17.20;99.90;;;;;;5014893;28;20257;-78
2021/05/16 12:24:46;;;;;;;3.10;1.60;;;17.20;99.90;;;;;;5014178;28;20177;-82
2021/05/16 12:27:19;;;;;;;4.23;1.70;;;17.10;99.90;;;;;;5014730;28;20189;-81
2021/05/16 12:29:47;;;;;;;6.03;1.80;;;17.10;99.90;;;;;;4999629;28;20179;-80
2021/05/16 12:32:19;;;;;;;4.57;1.97;;;17.10;99.90;;;;;;5004680;28;20234;-82
2021/05/16 12:34:45;;;;;;;3.50;1.33;;;17.50;99.90;;;;;;5013023;28;20171;-82
2021/05/16 12:37:21;;;;;;;4.37;1.80;;;17.60;1.00;;;;;;5011973;28;20871;-79
2021/05/16 12:39:48;;;;;;;4.27;1.60;;;17.40;1.00;;;;;;5002722;28;20182;-82
2021/05/16 12:42:25;;;;;;;2.87;1.20;;;17.10;1.00;;;;;;5011421;28;20205;-81
2021/05/16 12:44:52;;;;;;;4.23;1.40;;;17.10;99.90;;;;;;5004257;28;20241;-80
2021/05/16 12:47:26;;;;;;;4.13;1.37;;;16.90;99.90;;;;;;5003536;28;20195;-80